sensor_id;sensor_type;location;lat;lon;timestamp;temperature;humidity
19214;DHT22;9741;51.020;5.304;2022-12-07T00:01:56;6.60;64.60
19214;DHT22;9741;51.020;5.304;2022-12-07T00:04:23;6.60;64.70
19214;DHT22;9741;51.020;5.304;2022-12-07T00:06:51;6.50;64.70
19214;DHT22;9741;51.020;5.304;2022-12-07T00:09:19;6.40;64.60
19214;DHT22;9741;51.020;5.304;2022-12-07T00:11:49;6.40;64.60
19214;DHT22;9741;51.020;5.304;2022-12-07T00:14:18;6.40;64.80
19214;DHT22;9741;51.020;5.304;2022-12-07T00:16:48;6.40;64.80
19214;DHT22;9741;51.020;5.304;2022-12-07T00:19:16;6.30;64.80
19214;DHT22;9741;51.020;5.304;2022-12-07T00:21:44;6.30;64.80
19214;DHT22;9741;51.020;5.304;2022-12-07T00:24:13;6.20;64.70
19214;DHT22;9741;51.020;5.304;2022-12-07T00:26:41;6.20;64.70
19214;DHT22;9741;51.020;5.304;2022-12-07T00:29:15;6.20;64.80
19214;DHT22;9741;51.020;5.304;2022-12-07T00:31:44;6.20;64.80
19214;DHT22;9741;51.020;5.304;2022-12-07T00:34:13;6.10;64.80
19214;DHT22;9741;51.020;5.304;2022-12-07T00:36:41;6.10;64.80
19214;DHT22;9741;51.020;5.304;2022-12-07T00:39:08;6.10;64.80
19214;DHT22;9741;51.020;5.304;2022-12-07T00:41:35;6.00;64.80
19214;DHT22;9741;51.020;5.304;2022-12-07T00:44:02;6.00;64.80
19214;DHT22;9741;51.020;5.304;2022-12-07T00:46:29;5.90;64.70
19214;DHT22;9741;51.020;5.304;2022-12-07T00:48:58;6.00;64.80
19214;DHT22;9741;51.020;5.304;2022-12-07T00:51:25;5.90;64.80
19214;DHT22;9741;51.020;5.304;2022-12-07T00:53:52;5.90;64.80
19214;DHT22;9741;51.020;5.304;2022-12-07T00:56:21;5.90;64.90
19214;DHT22;9741;51.020;5.304;2022-12-07T00:58:53;6.00;65.10
19214;DHT22;9741;51.020;5.304;2022-12-07T01:01:21;5.90;65.00
19214;DHT22;9741;51.020;5.304;2022-12-07T01:03:49;6.00;65.10
19214;DHT22;9741;51.020;5.304;2022-12-07T01:06:19;6.10;65.20
19214;DHT22;9741;51.020;5.304;2022-12-07T01:08:47;6.10;65.10
19214;DHT22;9741;51.020;5.304;2022-12-07T01:11:16;6.20;65.10
19214;DHT22;9741;51.020;5.304;2022-12-07T01:13:44;6.20;65.10
19214;DHT22;9741;51.020;5.304;2022-12-07T01:16:15;6.20;65.10
19214;DHT22;9741;51.020;5.304;2022-12-07T01:18:45;6.20;65.10
19214;DHT22;9741;51.020;5.304;2022-12-07T01:21:14;6.20;65.00
19214;DHT22;9741;51.020;5.304;2022-12-07T01:23:43;6.30;65.10
19214;DHT22;9741;51.020;5.304;2022-12-07T01:26:13;6.30;65.10
19214;DHT22;9741;51.020;5.304;2022-12-07T01:28:41;6.30;65.10
19214;DHT22;9741;51.020;5.304;2022-12-07T01:31:10;6.30;65.10
19214;DHT22;9741;51.020;5.304;2022-12-07T01:33:38;6.40;65.10
19214;DHT22;9741;51.020;5.304;2022-12-07T01:36:13;6.40;65.10
19214;DHT22;9741;51.020;5.304;2022-12-07T01:38:42;6.40;65.10
19214;DHT22;9741;51.020;5.304;2022-12-07T01:41:09;6.30;65.00
19214;DHT22;9741;51.020;5.304;2022-12-07T01:43:36;6.30;65.00
19214;DHT22;9741;51.020;5.304;2022-12-07T01:46:04;6.30;65.00
19214;DHT22;9741;51.020;5.304;2022-12-07T01:48:33;6.30;65.10
19214;DHT22;9741;51.020;5.304;2022-12-07T01:51:05;6.30;65.10
19214;DHT22;9741;51.020;5.304;2022-12-07T01:53:35;6.30;65.20
19214;DHT22;9741;51.020;5.304;2022-12-07T01:56:05;6.20;65.00
19214;DHT22;9741;51.020;5.304;2022-12-07T01:58:35;6.20;65.00
19214;DHT22;9741;51.020;5.304;2022-12-07T02:01:03;6.10;64.80
19214;DHT22;9741;51.020;5.304;2022-12-07T02:03:32;6.10;64.90
19214;DHT22;9741;51.020;5.304;2022-12-07T02:06:00;5.90;65.40
19214;DHT22;9741;51.020;5.304;2022-12-07T02:08:28;5.90;65.00
19214;DHT22;9741;51.020;5.304;2022-12-07T02:10:55;5.80;65.00
19214;DHT22;9741;51.020;5.304;2022-12-07T02:13:25;5.80;65.10
19214;DHT22;9741;51.020;5.304;2022-12-07T02:16:17;5.70;65.20
19214;DHT22;9741;51.020;5.304;2022-12-07T02:18:59;5.80;65.40
19214;DHT22;9741;51.020;5.304;2022-12-07T02:21:34;5.70;65.40
19214;DHT22;9741;51.020;5.304;2022-12-07T02:24:30;5.80;65.50
19214;DHT22;9741;51.020;5.304;2022-12-07T02:27:12;5.70;65.40
19214;DHT22;9741;51.020;5.304;2022-12-07T02:29:45;5.70;65.40
19214;DHT22;9741;51.020;5.304;2022-12-07T02:32:16;5.80;65.60
19214;DHT22;9741;51.020;5.304;2022-12-07T02:34:49;5.80;65.60
19214;DHT22;9741;51.020;5.304;2022-12-07T02:37:25;5.80;65.60
19214;DHT22;9741;51.020;5.304;2022-12-07T02:39:57;5.80;65.60
19214;DHT22;9741;51.020;5.304;2022-12-07T02:42:32;5.90;65.70
19214;DHT22;9741;51.020;5.304;2022-12-07T02:45:07;5.90;65.70
19214;DHT22;9741;51.020;5.304;2022-12-07T02:47:36;6.00;65.70
19214;DHT22;9741;51.020;5.304;2022-12-07T02:50:04;6.00;65.70
19214;DHT22;9741;51.020;5.304;2022-12-07T02:52:32;6.10;65.70
19214;DHT22;9741;51.020;5.304;2022-12-07T02:54:59;6.10;65.60
19214;DHT22;9741;51.020;5.304;2022-12-07T02:57:37;6.10;65.60
19214;DHT22;9741;51.020;5.304;2022-12-07T03:00:11;6.10;65.50
19214;DHT22;9741;51.020;5.304;2022-12-07T03:02:50;6.10;65.50
19214;DHT22;9741;51.020;5.304;2022-12-07T03:05:41;6.20;65.60
19214;DHT22;9741;51.020;5.304;2022-12-07T03:08:15;6.10;65.50
19214;DHT22;9741;51.020;5.304;2022-12-07T03:10:54;6.10;65.50
19214;DHT22;9741;51.020;5.304;2022-12-07T03:13:25;6.10;65.50
19214;DHT22;9741;51.020;5.304;2022-12-07T03:16:01;6.00;65.60
19214;DHT22;9741;51.020;5.304;2022-12-07T03:18:32;6.00;65.70
19214;DHT22;9741;51.020;5.304;2022-12-07T03:21:03;6.00;65.70
19214;DHT22;9741;51.020;5.304;2022-12-07T03:23:32;6.10;65.80
19214;DHT22;9741;51.020;5.304;2022-12-07T03:26:03;6.10;65.80
19214;DHT22;9741;51.020;5.304;2022-12-07T03:28:34;6.10;65.80
19214;DHT22;9741;51.020;5.304;2022-12-07T03:31:08;6.20;65.90
19214;DHT22;9741;51.020;5.304;2022-12-07T03:33:44;6.20;65.80
19214;DHT22;9741;51.020;5.304;2022-12-07T03:36:20;6.30;65.90
19214;DHT22;9741;51.020;5.304;2022-12-07T03:38:52;6.30;65.80
19214;DHT22;9741;51.020;5.304;2022-12-07T03:41:24;6.30;65.80
19214;DHT22;9741;51.020;5.304;2022-12-07T03:43:54;6.40;65.80
19214;DHT22;9741;51.020;5.304;2022-12-07T03:46:31;6.40;65.70
19214;DHT22;9741;51.020;5.304;2022-12-07T03:49:07;6.40;65.70
19214;DHT22;9741;51.020;5.304;2022-12-07T03:51:40;6.30;65.50
19214;DHT22;9741;51.020;5.304;2022-12-07T03:54:13;6.30;65.50
19214;DHT22;9741;51.020;5.304;2022-12-07T03:56:42;6.20;65.40
19214;DHT22;9741;51.020;5.304;2022-12-07T03:59:11;6.10;65.30
19214;DHT22;9741;51.020;5.304;2022-12-07T04:01:42;6.00;65.30
19214;DHT22;9741;51.020;5.304;2022-12-07T04:04:10;5.90;65.30
19214;DHT22;9741;51.020;5.304;2022-12-07T04:06:37;5.80;65.30
19214;DHT22;9741;51.020;5.304;2022-12-07T04:09:04;5.70;65.20
19214;DHT22;9741;51.020;5.304;2022-12-07T04:11:31;5.60;65.30
19214;DHT22;9741;51.020;5.304;2022-12-07T04:13:58;5.50;65.40
19214;DHT22;9741;51.020;5.304;2022-12-07T04:16:45;5.50;65.50
19214;DHT22;9741;51.020;5.304;2022-12-07T04:19:12;5.40;65.50
19214;DHT22;9741;51.020;5.304;2022-12-07T04:21:40;5.30;65.40
19214;DHT22;9741;51.020;5.304;2022-12-07T04:24:07;5.30;65.50
19214;DHT22;9741;51.020;5.304;2022-12-07T04:26:34;5.30;65.60
19214;DHT22;9741;51.020;5.304;2022-12-07T04:29:01;5.20;65.60
19214;DHT22;9741;51.020;5.304;2022-12-07T04:31:28;5.30;65.80
19214;DHT22;9741;51.020;5.304;2022-12-07T04:33:57;5.30;65.90
19214;DHT22;9741;51.020;5.304;2022-12-07T04:36:24;5.30;65.80
19214;DHT22;9741;51.020;5.304;2022-12-07T04:38:53;5.30;65.60
19214;DHT22;9741;51.020;5.304;2022-12-07T04:41:23;5.30;65.50
19214;DHT22;9741;51.020;5.304;2022-12-07T04:43:53;5.30;65.50
19214;DHT22;9741;51.020;5.304;2022-12-07T04:46:21;5.20;65.40
19214;DHT22;9741;51.020;5.304;2022-12-07T04:48:48;5.10;65.40
19214;DHT22;9741;51.020;5.304;2022-12-07T04:51:20;5.10;65.40
19214;DHT22;9741;51.020;5.304;2022-12-07T04:53:47;5.00;65.40
19214;DHT22;9741;51.020;5.304;2022-12-07T04:56:15;5.00;65.50
19214;DHT22;9741;51.020;5.304;2022-12-07T04:58:43;4.90;65.50
19214;DHT22;9741;51.020;5.304;2022-12-07T05:01:11;4.90;65.50
19214;DHT22;9741;51.020;5.304;2022-12-07T05:03:38;4.90;65.50
19214;DHT22;9741;51.020;5.304;2022-12-07T05:06:06;4.90;65.50
19214;DHT22;9741;51.020;5.304;2022-12-07T05:08:35;4.80;65.40
19214;DHT22;9741;51.020;5.304;2022-12-07T05:11:04;4.80;65.50
19214;DHT22;9741;51.020;5.304;2022-12-07T05:13:31;4.80;65.50
19214;DHT22;9741;51.020;5.304;2022-12-07T05:15:58;4.70;65.50
19214;DHT22;9741;51.020;5.304;2022-12-07T05:18:25;4.70;65.50
19214;DHT22;9741;51.020;5.304;2022-12-07T05:20:52;4.70;65.50
19214;DHT22;9741;51.020;5.304;2022-12-07T05:23:19;4.80;65.60
19214;DHT22;9741;51.020;5.304;2022-12-07T05:25:48;4.80;65.60
19214;DHT22;9741;51.020;5.304;2022-12-07T05:28:15;4.80;65.60
19214;DHT22;9741;51.020;5.304;2022-12-07T05:30:42;4.80;65.50
19214;DHT22;9741;51.020;5.304;2022-12-07T05:33:10;4.70;65.40
19214;DHT22;9741;51.020;5.304;2022-12-07T05:35:37;4.70;65.40
19214;DHT22;9741;51.020;5.304;2022-12-07T05:38:04;4.70;65.50
19214;DHT22;9741;51.020;5.304;2022-12-07T05:40:31;4.70;65.60
19214;DHT22;9741;51.020;5.304;2022-12-07T05:43:00;4.70;65.60
19214;DHT22;9741;51.020;5.304;2022-12-07T05:45:29;4.80;65.70
19214;DHT22;9741;51.020;5.304;2022-12-07T05:47:56;4.80;65.70
19214;DHT22;9741;51.020;5.304;2022-12-07T05:50:23;4.90;65.90
19214;DHT22;9741;51.020;5.304;2022-12-07T05:52:50;4.90;65.80
19214;DHT22;9741;51.020;5.304;2022-12-07T05:55:17;4.90;65.70
19214;DHT22;9741;51.020;5.304;2022-12-07T05:57:44;5.00;65.80
19214;DHT22;9741;51.020;5.304;2022-12-07T06:00:33;5.00;65.80
19214;DHT22;9741;51.020;5.304;2022-12-07T06:02:59;5.00;65.80
19214;DHT22;9741;51.020;5.304;2022-12-07T06:05:26;5.10;65.90
19214;DHT22;9741;51.020;5.304;2022-12-07T06:07:53;5.10;65.90
19214;DHT22;9741;51.020;5.304;2022-12-07T06:10:20;5.20;65.90
19214;DHT22;9741;51.020;5.304;2022-12-07T06:12:50;5.20;65.80
19214;DHT22;9741;51.020;5.304;2022-12-07T06:15:16;5.30;65.90
19214;DHT22;9741;51.020;5.304;2022-12-07T06:17:44;5.30;65.80
19214;DHT22;9741;51.020;5.304;2022-12-07T06:20:12;5.30;65.80
19214;DHT22;9741;51.020;5.304;2022-12-07T06:22:39;5.30;65.80
19214;DHT22;9741;51.020;5.304;2022-12-07T06:25:06;5.40;65.80
19214;DHT22;9741;51.020;5.304;2022-12-07T06:27:34;5.40;65.80
19214;DHT22;9741;51.020;5.304;2022-12-07T06:30:01;5.40;65.80
19214;DHT22;9741;51.020;5.304;2022-12-07T06:32:32;5.40;65.80
19214;DHT22;9741;51.020;5.304;2022-12-07T06:35:01;5.40;65.80
19214;DHT22;9741;51.020;5.304;2022-12-07T06:37:30;5.40;65.80
19214;DHT22;9741;51.020;5.304;2022-12-07T06:39:58;5.40;65.80
19214;DHT22;9741;51.020;5.304;2022-12-07T06:42:25;5.40;65.80
19214;DHT22;9741;51.020;5.304;2022-12-07T06:44:52;5.40;65.80
19214;DHT22;9741;51.020;5.304;2022-12-07T06:47:19;5.40;65.80
19214;DHT22;9741;51.020;5.304;2022-12-07T06:49:46;5.40;65.80
19214;DHT22;9741;51.020;5.304;2022-12-07T06:52:16;5.40;65.70
19214;DHT22;9741;51.020;5.304;2022-12-07T06:54:43;5.30;65.70
19214;DHT22;9741;51.020;5.304;2022-12-07T06:57:11;5.20;65.50
19214;DHT22;9741;51.020;5.304;2022-12-07T06:59:39;5.10;65.50
19214;DHT22;9741;51.020;5.304;2022-12-07T07:02:08;5.00;65.40
19214;DHT22;9741;51.020;5.304;2022-12-07T07:04:35;4.90;65.30
19214;DHT22;9741;51.020;5.304;2022-12-07T07:07:02;4.90;65.30
19214;DHT22;9741;51.020;5.304;2022-12-07T07:09:30;4.70;65.30
19214;DHT22;9741;51.020;5.304;2022-12-07T07:11:57;4.60;65.30
19214;DHT22;9741;51.020;5.304;2022-12-07T07:14:24;4.50;65.30
19214;DHT22;9741;51.020;5.304;2022-12-07T07:16:53;4.50;65.30
19214;DHT22;9741;51.020;5.304;2022-12-07T07:19:20;4.40;65.30
19214;DHT22;9741;51.020;5.304;2022-12-07T07:21:48;4.30;65.20
19214;DHT22;9741;51.020;5.304;2022-12-07T07:24:17;4.20;65.30
19214;DHT22;9741;51.020;5.304;2022-12-07T07:26:46;4.10;65.30
19214;DHT22;9741;51.020;5.304;2022-12-07T07:29:13;4.10;65.30
19214;DHT22;9741;51.020;5.304;2022-12-07T07:31:40;4.00;65.20
19214;DHT22;9741;51.020;5.304;2022-12-07T07:34:07;3.90;65.40
19214;DHT22;9741;51.020;5.304;2022-12-07T07:36:34;3.80;65.20
19214;DHT22;9741;51.020;5.304;2022-12-07T07:39:01;3.80;65.30
19214;DHT22;9741;51.020;5.304;2022-12-07T07:41:28;3.80;65.40
19214;DHT22;9741;51.020;5.304;2022-12-07T07:43:57;3.70;65.40
19214;DHT22;9741;51.020;5.304;2022-12-07T07:46:24;3.70;65.50
19214;DHT22;9741;51.020;5.304;2022-12-07T07:48:51;3.70;65.50
19214;DHT22;9741;51.020;5.304;2022-12-07T07:51:18;3.70;65.50
19214;DHT22;9741;51.020;5.304;2022-12-07T07:53:45;3.70;65.60
19214;DHT22;9741;51.020;5.304;2022-12-07T07:56:12;3.70;65.70
19214;DHT22;9741;51.020;5.304;2022-12-07T07:58:40;3.80;65.90
19214;DHT22;9741;51.020;5.304;2022-12-07T08:01:08;3.80;65.90
19214;DHT22;9741;51.020;5.304;2022-12-07T08:03:35;3.90;66.00
19214;DHT22;9741;51.020;5.304;2022-12-07T08:06:03;3.90;65.90
19214;DHT22;9741;51.020;5.304;2022-12-07T08:08:31;4.00;65.90
19214;DHT22;9741;51.020;5.304;2022-12-07T08:10:58;4.00;65.80
19214;DHT22;9741;51.020;5.304;2022-12-07T08:13:27;4.10;65.80
19214;DHT22;9741;51.020;5.304;2022-12-07T08:15:54;4.10;65.90
19214;DHT22;9741;51.020;5.304;2022-12-07T08:18:23;4.20;66.00
19214;DHT22;9741;51.020;5.304;2022-12-07T08:20:50;4.30;66.00
19214;DHT22;9741;51.020;5.304;2022-12-07T08:23:17;4.40;66.00
19214;DHT22;9741;51.020;5.304;2022-12-07T08:25:44;4.50;66.10
19214;DHT22;9741;51.020;5.304;2022-12-07T08:28:12;4.60;66.10
19214;DHT22;9741;51.020;5.304;2022-12-07T08:30:39;4.70;66.30
19214;DHT22;9741;51.020;5.304;2022-12-07T08:33:06;4.90;66.40
19214;DHT22;9741;51.020;5.304;2022-12-07T08:35:34;5.10;66.50
19214;DHT22;9741;51.020;5.304;2022-12-07T08:38:02;5.20;66.40
19214;DHT22;9741;51.020;5.304;2022-12-07T08:40:29;5.30;66.30
19214;DHT22;9741;51.020;5.304;2022-12-07T08:42:57;5.50;66.20
19214;DHT22;9741;51.020;5.304;2022-12-07T08:45:24;5.60;66.20
19214;DHT22;9741;51.020;5.304;2022-12-07T08:47:55;5.70;66.70
19214;DHT22;9741;51.020;5.304;2022-12-07T08:50:24;5.80;66.20
19214;DHT22;9741;51.020;5.304;2022-12-07T08:52:54;5.90;66.10
19214;DHT22;9741;51.020;5.304;2022-12-07T08:55:21;6.00;66.10
19214;DHT22;9741;51.020;5.304;2022-12-07T08:57:49;6.10;66.10
19214;DHT22;9741;51.020;5.304;2022-12-07T09:00:17;6.10;66.10
19214;DHT22;9741;51.020;5.304;2022-12-07T09:02:45;6.10;65.90
19214;DHT22;9741;51.020;5.304;2022-12-07T09:05:12;6.10;65.90
19214;DHT22;9741;51.020;5.304;2022-12-07T09:07:40;6.20;66.00
19214;DHT22;9741;51.020;5.304;2022-12-07T09:10:11;6.20;66.10
19214;DHT22;9741;51.020;5.304;2022-12-07T09:12:39;6.30;66.20
19214;DHT22;9741;51.020;5.304;2022-12-07T09:15:07;6.40;66.40
19214;DHT22;9741;51.020;5.304;2022-12-07T09:17:35;6.40;66.30
19214;DHT22;9741;51.020;5.304;2022-12-07T09:20:03;6.50;66.30
19214;DHT22;9741;51.020;5.304;2022-12-07T09:22:31;6.50;66.20
19214;DHT22;9741;51.020;5.304;2022-12-07T09:24:58;6.60;66.30
19214;DHT22;9741;51.020;5.304;2022-12-07T09:27:27;6.60;66.20
19214;DHT22;9741;51.020;5.304;2022-12-07T09:29:55;6.70;66.40
19214;DHT22;9741;51.020;5.304;2022-12-07T09:32:22;6.80;66.60
19214;DHT22;9741;51.020;5.304;2022-12-07T09:34:50;6.90;66.70
19214;DHT22;9741;51.020;5.304;2022-12-07T09:37:17;7.00;66.70
19214;DHT22;9741;51.020;5.304;2022-12-07T09:39:44;7.20;66.70
19214;DHT22;9741;51.020;5.304;2022-12-07T09:42:23;7.30;66.60
19214;DHT22;9741;51.020;5.304;2022-12-07T09:44:53;7.50;66.40
19214;DHT22;9741;51.020;5.304;2022-12-07T09:47:21;7.60;66.40
19214;DHT22;9741;51.020;5.304;2022-12-07T09:49:48;7.60;66.30
19214;DHT22;9741;51.020;5.304;2022-12-07T09:52:22;7.70;66.40
19214;DHT22;9741;51.020;5.304;2022-12-07T09:54:52;7.80;66.40
19214;DHT22;9741;51.020;5.304;2022-12-07T09:57:28;7.90;66.30
19214;DHT22;9741;51.020;5.304;2022-12-07T10:00:04;8.10;66.50
19214;DHT22;9741;51.020;5.304;2022-12-07T10:02:36;8.10;66.50
19214;DHT22;9741;51.020;5.304;2022-12-07T10:05:06;8.30;66.60
19214;DHT22;9741;51.020;5.304;2022-12-07T10:07:33;8.30;66.40
19214;DHT22;9741;51.020;5.304;2022-12-07T10:10:03;8.40;66.40
19214;DHT22;9741;51.020;5.304;2022-12-07T10:12:30;8.50;66.40
19214;DHT22;9741;51.020;5.304;2022-12-07T10:15:13;8.50;66.20
19214;DHT22;9741;51.020;5.304;2022-12-07T10:17:46;8.40;65.90
19214;DHT22;9741;51.020;5.304;2022-12-07T10:20:19;8.30;65.90
19214;DHT22;9741;51.020;5.304;2022-12-07T10:23:01;8.20;65.90
19214;DHT22;9741;51.020;5.304;2022-12-07T10:25:30;8.00;65.90
19214;DHT22;9741;51.020;5.304;2022-12-07T10:28:00;7.80;65.90
19214;DHT22;9741;51.020;5.304;2022-12-07T10:30:30;7.70;66.10
19214;DHT22;9741;51.020;5.304;2022-12-07T10:32:58;7.60;66.10
19214;DHT22;9741;51.020;5.304;2022-12-07T10:35:27;7.50;66.20
19214;DHT22;9741;51.020;5.304;2022-12-07T10:37:56;7.50;66.40
19214;DHT22;9741;51.020;5.304;2022-12-07T10:40:29;7.50;66.50
19214;DHT22;9741;51.020;5.304;2022-12-07T10:43:02;7.40;66.50
19214;DHT22;9741;51.020;5.304;2022-12-07T10:45:30;7.40;66.50
19214;DHT22;9741;51.020;5.304;2022-12-07T10:48:03;7.40;66.50
19214;DHT22;9741;51.020;5.304;2022-12-07T10:50:56;7.30;66.40
19214;DHT22;9741;51.020;5.304;2022-12-07T10:53:37;7.30;66.40
19214;DHT22;9741;51.020;5.304;2022-12-07T10:56:34;7.30;66.50
19214;DHT22;9741;51.020;5.304;2022-12-07T10:59:23;7.20;66.40
19214;DHT22;9741;51.020;5.304;2022-12-07T11:01:57;7.30;66.70
19214;DHT22;9741;51.020;5.304;2022-12-07T11:04:35;7.30;66.80
19214;DHT22;9741;51.020;5.304;2022-12-07T11:07:10;7.30;66.80
19214;DHT22;9741;51.020;5.304;2022-12-07T11:12:52;7.40;66.90
19214;DHT22;9741;51.020;5.304;2022-12-07T11:15:24;7.50;66.90
19214;DHT22;9741;51.020;5.304;2022-12-07T11:17:58;7.60;67.00
19214;DHT22;9741;51.020;5.304;2022-12-07T11:20:39;7.70;67.00
19214;DHT22;9741;51.020;5.304;2022-12-07T11:23:19;7.70;66.80
19214;DHT22;9741;51.020;5.304;2022-12-07T11:25:53;7.80;66.80
19214;DHT22;9741;51.020;5.304;2022-12-07T11:28:31;7.80;66.80
19214;DHT22;9741;51.020;5.304;2022-12-07T11:31:08;7.80;66.70
19214;DHT22;9741;51.020;5.304;2022-12-07T11:33:44;7.80;66.70
19214;DHT22;9741;51.020;5.304;2022-12-07T11:36:26;7.80;66.70
19214;DHT22;9741;51.020;5.304;2022-12-07T11:39:00;7.90;66.80
19214;DHT22;9741;51.020;5.304;2022-12-07T11:41:31;7.90;66.80
19214;DHT22;9741;51.020;5.304;2022-12-07T11:44:04;8.00;66.80
19214;DHT22;9741;51.020;5.304;2022-12-07T11:46:43;8.10;66.90
19214;DHT22;9741;51.020;5.304;2022-12-07T11:49:21;8.20;67.00
19214;DHT22;9741;51.020;5.304;2022-12-07T11:51:53;8.40;67.00
19214;DHT22;9741;51.020;5.304;2022-12-07T11:54:25;8.50;66.90
19214;DHT22;9741;51.020;5.304;2022-12-07T11:56:54;8.60;66.90
19214;DHT22;9741;51.020;5.304;2022-12-07T11:59:27;8.70;66.70
19214;DHT22;9741;51.020;5.304;2022-12-07T12:01:58;8.80;66.50
19214;DHT22;9741;51.020;5.304;2022-12-07T12:04:34;8.90;66.60
19214;DHT22;9741;51.020;5.304;2022-12-07T12:07:07;9.00;66.50
19214;DHT22;9741;51.020;5.304;2022-12-07T12:09:45;9.10;66.40
19214;DHT22;9741;51.020;5.304;2022-12-07T12:12:23;9.30;66.40
19214;DHT22;9741;51.020;5.304;2022-12-07T12:15:08;9.30;66.20
19214;DHT22;9741;51.020;5.304;2022-12-07T12:18:00;9.40;66.10
19214;DHT22;9741;51.020;5.304;2022-12-07T12:20:36;9.50;66.00
19214;DHT22;9741;51.020;5.304;2022-12-07T12:23:12;9.50;65.80
19214;DHT22;9741;51.020;5.304;2022-12-07T12:25:42;9.60;65.70
19214;DHT22;9741;51.020;5.304;2022-12-07T12:28:22;9.60;65.70
19214;DHT22;9741;51.020;5.304;2022-12-07T12:31:14;9.70;65.60
19214;DHT22;9741;51.020;5.304;2022-12-07T12:33:44;9.70;65.40
19214;DHT22;9741;51.020;5.304;2022-12-07T12:36:47;9.70;65.30
19214;DHT22;9741;51.020;5.304;2022-12-07T12:39:15;9.70;65.20
19214;DHT22;9741;51.020;5.304;2022-12-07T12:42:18;9.70;65.10
19214;DHT22;9741;51.020;5.304;2022-12-07T12:45:20;9.70;65.10
19214;DHT22;9741;51.020;5.304;2022-12-07T12:48:09;9.60;64.80
19214;DHT22;9741;51.020;5.304;2022-12-07T12:54:03;9.70;64.80
19214;DHT22;9741;51.020;5.304;2022-12-07T12:56:38;9.70;64.70
19214;DHT22;9741;51.020;5.304;2022-12-07T12:59:31;9.80;64.80
19214;DHT22;9741;51.020;5.304;2022-12-07T13:02:16;9.80;64.70
19214;DHT22;9741;51.020;5.304;2022-12-07T13:04:52;9.80;64.60
19214;DHT22;9741;51.020;5.304;2022-12-07T13:07:50;9.80;64.50
19214;DHT22;9741;51.020;5.304;2022-12-07T13:10:46;9.80;64.40
19214;DHT22;9741;51.020;5.304;2022-12-07T13:13:32;9.80;64.20
19214;DHT22;9741;51.020;5.304;2022-12-07T13:16:40;9.70;64.00
19214;DHT22;9741;51.020;5.304;2022-12-07T13:25:12;9.50;63.90
19214;DHT22;9741;51.020;5.304;2022-12-07T13:27:51;9.40;63.80
19214;DHT22;9741;51.020;5.304;2022-12-07T13:30:22;9.30;63.90
19214;DHT22;9741;51.020;5.304;2022-12-07T13:32:52;9.20;63.80
19214;DHT22;9741;51.020;5.304;2022-12-07T13:35:31;9.00;63.60
19214;DHT22;9741;51.020;5.304;2022-12-07T13:37:59;9.00;64.30
19214;DHT22;9741;51.020;5.304;2022-12-07T13:40:28;8.90;63.80
19214;DHT22;9741;51.020;5.304;2022-12-07T13:43:02;8.80;63.80
19214;DHT22;9741;51.020;5.304;2022-12-07T13:45:31;8.80;63.90
19214;DHT22;9741;51.020;5.304;2022-12-07T13:48:21;8.80;64.00
19214;DHT22;9741;51.020;5.304;2022-12-07T13:50:54;8.80;64.00
19214;DHT22;9741;51.020;5.304;2022-12-07T13:53:22;8.80;64.00
19214;DHT22;9741;51.020;5.304;2022-12-07T13:55:49;8.70;63.90
19214;DHT22;9741;51.020;5.304;2022-12-07T13:58:18;8.70;63.90
19214;DHT22;9741;51.020;5.304;2022-12-07T14:00:45;8.60;63.80
19214;DHT22;9741;51.020;5.304;2022-12-07T14:03:31;8.60;63.90
19214;DHT22;9741;51.020;5.304;2022-12-07T14:06:22;8.60;64.00
19214;DHT22;9741;51.020;5.304;2022-12-07T14:09:05;8.60;64.00
19214;DHT22;9741;51.020;5.304;2022-12-07T14:11:33;8.50;64.00
19214;DHT22;9741;51.020;5.304;2022-12-07T14:14:03;8.40;64.00
19214;DHT22;9741;51.020;5.304;2022-12-07T14:16:34;8.30;64.00
19214;DHT22;9741;51.020;5.304;2022-12-07T14:19:04;8.20;64.00
19214;DHT22;9741;51.020;5.304;2022-12-07T14:21:32;8.20;64.10
19214;DHT22;9741;51.020;5.304;2022-12-07T14:24:15;8.10;64.20
19214;DHT22;9741;51.020;5.304;2022-12-07T14:26:43;8.10;64.20
19214;DHT22;9741;51.020;5.304;2022-12-07T14:29:37;8.00;64.30
19214;DHT22;9741;51.020;5.304;2022-12-07T14:32:20;7.90;64.30
19214;DHT22;9741;51.020;5.304;2022-12-07T14:34:59;7.80;64.30
19214;DHT22;9741;51.020;5.304;2022-12-07T14:37:28;7.70;64.40
19214;DHT22;9741;51.020;5.304;2022-12-07T14:39:56;7.70;64.50
19214;DHT22;9741;51.020;5.304;2022-12-07T14:42:26;7.60;64.60
19214;DHT22;9741;51.020;5.304;2022-12-07T14:44:56;7.60;64.60
19214;DHT22;9741;51.020;5.304;2022-12-07T14:47:24;7.60;64.70
19214;DHT22;9741;51.020;5.304;2022-12-07T14:49:52;7.60;64.70
19214;DHT22;9741;51.020;5.304;2022-12-07T14:52:22;7.60;64.80
19214;DHT22;9741;51.020;5.304;2022-12-07T14:54:50;7.60;64.80
19214;DHT22;9741;51.020;5.304;2022-12-07T14:57:17;7.60;64.80
19214;DHT22;9741;51.020;5.304;2022-12-07T14:59:44;7.60;64.70
19214;DHT22;9741;51.020;5.304;2022-12-07T15:02:14;7.60;64.80
19214;DHT22;9741;51.020;5.304;2022-12-07T15:04:41;7.60;64.80
19214;DHT22;9741;51.020;5.304;2022-12-07T15:07:15;7.60;64.80
19214;DHT22;9741;51.020;5.304;2022-12-07T15:09:44;7.60;64.80
19214;DHT22;9741;51.020;5.304;2022-12-07T15:12:11;7.60;64.80
19214;DHT22;9741;51.020;5.304;2022-12-07T15:14:38;7.60;64.80
19214;DHT22;9741;51.020;5.304;2022-12-07T15:17:05;7.60;64.80
19214;DHT22;9741;51.020;5.304;2022-12-07T15:19:34;7.60;64.80
19214;DHT22;9741;51.020;5.304;2022-12-07T15:22:01;7.50;64.70
19214;DHT22;9741;51.020;5.304;2022-12-07T15:24:28;7.50;64.80
19214;DHT22;9741;51.020;5.304;2022-12-07T15:26:55;7.40;64.70
19214;DHT22;9741;51.020;5.304;2022-12-07T15:29:23;7.40;64.80
19214;DHT22;9741;51.020;5.304;2022-12-07T15:31:50;7.30;64.70
19214;DHT22;9741;51.020;5.304;2022-12-07T15:34:17;7.20;64.80
19214;DHT22;9741;51.020;5.304;2022-12-07T15:36:46;7.20;64.90
19214;DHT22;9741;51.020;5.304;2022-12-07T15:39:13;7.10;64.90
19214;DHT22;9741;51.020;5.304;2022-12-07T15:41:40;7.10;64.90
19214;DHT22;9741;51.020;5.304;2022-12-07T15:44:09;7.00;64.90
19214;DHT22;9741;51.020;5.304;2022-12-07T15:46:54;7.00;65.00
19214;DHT22;9741;51.020;5.304;2022-12-07T15:49:21;6.90;65.00
19214;DHT22;9741;51.020;5.304;2022-12-07T15:51:50;6.90;65.10
19214;DHT22;9741;51.020;5.304;2022-12-07T15:54:20;6.90;65.20
19214;DHT22;9741;51.020;5.304;2022-12-07T15:56:48;6.80;65.10
19214;DHT22;9741;51.020;5.304;2022-12-07T15:59:15;6.80;65.10
19214;DHT22;9741;51.020;5.304;2022-12-07T16:01:43;6.80;65.20
19214;DHT22;9741;51.020;5.304;2022-12-07T16:04:11;6.80;65.20
19214;DHT22;9741;51.020;5.304;2022-12-07T16:06:38;6.80;65.20
19214;DHT22;9741;51.020;5.304;2022-12-07T16:09:06;6.70;65.10
19214;DHT22;9741;51.020;5.304;2022-12-07T16:11:34;6.70;65.10
19214;DHT22;9741;51.020;5.304;2022-12-07T16:14:01;6.60;65.00
19214;DHT22;9741;51.020;5.304;2022-12-07T16:16:28;6.50;64.90
19214;DHT22;9741;51.020;5.304;2022-12-07T16:18:56;6.40;65.00
19214;DHT22;9741;51.020;5.304;2022-12-07T16:21:24;6.40;65.10
19214;DHT22;9741;51.020;5.304;2022-12-07T16:23:51;6.40;65.10
19214;DHT22;9741;51.020;5.304;2022-12-07T16:26:21;6.40;65.30
19214;DHT22;9741;51.020;5.304;2022-12-07T16:28:49;6.40;65.30
19214;DHT22;9741;51.020;5.304;2022-12-07T16:31:18;6.40;65.30
19214;DHT22;9741;51.020;5.304;2022-12-07T16:33:45;6.40;65.30
19214;DHT22;9741;51.020;5.304;2022-12-07T16:36:13;6.40;65.20
19214;DHT22;9741;51.020;5.304;2022-12-07T16:38:42;6.30;65.00
19214;DHT22;9741;51.020;5.304;2022-12-07T16:41:09;6.30;65.00